createdAt,value
2018-05-27T00:00:08.128Z,32.60
2018-05-27T00:01:39.939Z,31.90
2018-05-27T00:03:11.751Z,36.90
2018-05-27T00:04:43.666Z,34.50
2018-05-27T00:06:15.374Z,32.90
2018-05-27T00:07:47.186Z,34.30
2018-05-27T00:09:18.998Z,33.60
2018-05-27T00:10:51.155Z,35.50
2018-05-27T00:12:22.626Z,34.30
2018-05-27T00:13:54.473Z,38.00
2018-05-27T00:15:26.330Z,36.20
2018-05-27T00:16:58.061Z,36.70
2018-05-27T00:18:29.868Z,38.00
2018-05-27T00:20:01.679Z,34.10
2018-05-27T00:21:33.490Z,36.20
2018-05-27T00:23:05.601Z,36.20
2018-05-27T00:24:37.113Z,39.10
2018-05-27T00:26:08.924Z,36.30
2018-05-27T00:27:40.736Z,40.70
2018-05-27T00:29:12.647Z,48.90
2018-05-27T00:30:44.357Z,40.90
2018-05-27T00:32:16.168Z,42.70
2018-05-27T00:33:48.008Z,45.10
2018-05-27T00:35:19.790Z,41.20
2018-05-27T00:36:51.600Z,47.40
2018-05-27T00:38:23.412Z,45.40
2018-05-27T00:39:55.222Z,45.20
2018-05-27T00:41:27.386Z,54.60
2018-05-27T00:42:58.847Z,45.80
2018-05-27T00:44:30.655Z,50.60
2018-05-27T00:46:02.465Z,47.70
2018-05-27T00:47:34.276Z,49.40
2018-05-27T00:49:06.088Z,50.60
2018-05-27T00:50:37.898Z,45.30
2018-05-27T00:52:09.713Z,47.80
2018-05-27T00:53:41.520Z,43.80
2018-05-27T00:55:13.330Z,43.30
2018-05-27T00:56:45.141Z,44.20
2018-05-27T00:58:16.951Z,49.10
2018-05-27T00:59:48.962Z,48.40
2018-05-27T01:01:20.572Z,46.10
2018-05-27T01:02:52.384Z,45.90
2018-05-27T01:04:24.195Z,46.00
2018-05-27T01:05:56.006Z,43.30
2018-05-27T01:07:27.815Z,45.10
2018-05-27T01:08:59.624Z,42.50
2018-05-27T01:10:31.498Z,49.80
2018-05-27T01:12:03.497Z,51.10
2018-05-27T01:13:35.057Z,44.30
2018-05-27T01:15:06.866Z,47.40
2018-05-27T01:16:38.677Z,47.30
2018-05-27T01:18:10.638Z,42.60
2018-05-27T01:19:42.298Z,45.30
2018-05-27T01:21:14.109Z,46.00
2018-05-27T01:22:45.919Z,44.30
2018-05-27T01:24:17.929Z,46.90
2018-05-27T01:25:49.548Z,44.00
2018-05-27T01:27:21.358Z,46.50
2018-05-27T01:28:53.161Z,50.00
2018-05-27T01:30:25.075Z,54.20
2018-05-27T01:31:56.780Z,52.90
2018-05-27T01:33:28.591Z,52.10
2018-05-27T01:35:00.411Z,47.10
2018-05-27T01:36:32.331Z,50.40
2018-05-27T01:38:04.022Z,46.40
2018-05-27T01:39:35.844Z,56.40
2018-05-27T01:41:07.644Z,46.10
2018-05-27T01:42:39.707Z,47.20
2018-05-27T01:44:11.264Z,55.50
2018-05-27T01:45:43.075Z,48.70
2018-05-27T01:47:14.885Z,50.60
2018-05-27T01:48:46.697Z,48.80
2018-05-27T01:50:18.506Z,57.10
2018-05-27T01:51:50.320Z,54.20
2018-05-27T01:53:22.127Z,54.60
2018-05-27T01:54:54.190Z,49.00
2018-05-27T01:56:25.749Z,53.40
2018-05-27T01:57:57.560Z,53.10
2018-05-27T01:59:29.434Z,59.30
2018-05-27T02:01:01.396Z,54.90
2018-05-27T02:02:32.989Z,58.80
2018-05-27T02:04:04.801Z,62.80
2018-05-27T02:05:36.610Z,56.10
2018-05-27T02:07:08.422Z,54.40
2018-05-27T02:08:40.230Z,62.90
2018-05-27T02:10:12.042Z,57.40
2018-05-27T02:11:43.850Z,55.30
2018-05-27T02:13:15.762Z,58.70
2018-05-27T02:14:47.473Z,57.50
2018-05-27T02:16:19.288Z,57.40
2018-05-27T02:17:51.093Z,60.00
2018-05-27T02:19:22.901Z,58.80
2018-05-27T02:20:54.713Z,60.40
2018-05-27T02:22:26.523Z,63.50
2018-05-27T02:23:58.331Z,66.20
2018-05-27T02:25:30.293Z,63.70
2018-05-27T02:27:01.952Z,75.80
2018-05-27T02:28:33.763Z,78.20
2018-05-27T02:30:05.573Z,73.20
2018-05-27T02:31:37.484Z,77.40
2018-05-27T02:33:09.191Z,72.60
2018-05-27T02:34:41.003Z,85.40
2018-05-27T02:36:12.817Z,82.90
2018-05-27T02:37:44.624Z,72.00
2018-05-27T02:39:16.434Z,71.60
2018-05-27T02:40:48.246Z,64.70
2018-05-27T02:42:20.052Z,68.80
2018-05-27T02:43:51.867Z,70.40
2018-05-27T02:45:23.793Z,71.20
2018-05-27T02:46:55.554Z,63.90
2018-05-27T02:48:27.417Z,70.00
2018-05-27T02:49:59.524Z,74.30
2018-05-27T02:51:30.983Z,79.60
2018-05-27T02:53:02.723Z,73.30
2018-05-27T02:54:34.535Z,78.20
2018-05-27T02:56:06.345Z,87.60
2018-05-27T02:57:38.153Z,88.50
2018-05-27T02:59:09.965Z,88.30
2018-05-27T03:00:41.775Z,88.80
2018-05-27T03:02:13.585Z,92.20
2018-05-27T03:03:45.397Z,99.40
2018-05-27T03:05:17.210Z,94.40
2018-05-27T03:06:49.016Z,99.90
2018-05-27T03:08:20.927Z,121.40
2018-05-27T03:09:52.636Z,112.60
2018-05-27T03:11:24.448Z,110.60
2018-05-27T03:12:56.256Z,107.70
2018-05-27T03:14:28.065Z,126.80
2018-05-27T03:15:59.878Z,129.90
2018-05-27T03:17:31.687Z,122.90
2018-05-27T03:19:03.497Z,130.10
2018-05-27T03:20:35.408Z,137.60
2018-05-27T03:22:07.117Z,123.00
2018-05-27T03:23:38.928Z,130.60
2018-05-27T03:25:10.737Z,140.10
2018-05-27T03:26:42.653Z,149.70
2018-05-27T03:28:14.358Z,147.80
2018-05-27T03:29:46.168Z,132.50
2018-05-27T03:31:17.979Z,114.00
2018-05-27T03:32:49.789Z,132.60
2018-05-27T03:34:21.599Z,142.50
2018-05-27T03:35:53.409Z,140.60
2018-05-27T03:37:25.220Z,127.70
2018-05-27T03:38:57.030Z,127.20
2018-05-27T03:40:28.840Z,133.50
2018-05-27T03:42:00.649Z,125.20
2018-05-27T03:43:32.460Z,122.80
2018-05-27T03:45:04.372Z,125.90
2018-05-27T03:46:36.080Z,130.90
2018-05-27T03:48:07.891Z,122.50
2018-05-27T03:49:39.701Z,121.70
2018-05-27T03:51:11.610Z,123.00
2018-05-27T03:52:43.321Z,144.60
2018-05-27T03:54:15.131Z,134.20
2018-05-27T03:55:46.941Z,117.90
2018-05-27T03:57:18.751Z,120.60
2018-05-27T03:58:50.563Z,124.20
2018-05-27T04:00:22.371Z,118.80
2018-05-27T04:01:54.181Z,128.60
2018-05-27T04:03:26.091Z,112.40
2018-05-27T04:04:57.802Z,120.80
2018-05-27T04:06:29.620Z,119.70
2018-05-27T04:08:01.421Z,124.00
2018-05-27T04:09:33.231Z,144.50
2018-05-27T04:11:05.039Z,139.30
2018-05-27T04:12:36.851Z,128.80
2018-05-27T04:14:08.662Z,121.00
2018-05-27T04:15:40.468Z,127.30
2018-05-27T04:17:12.280Z,134.30
2018-05-27T04:18:44.088Z,130.40
2018-05-27T04:20:15.898Z,134.00
2018-05-27T04:21:47.807Z,137.20
2018-05-27T04:23:19.516Z,137.00
2018-05-27T04:24:51.325Z,134.10
2018-05-27T04:26:23.135Z,131.80
2018-05-27T04:27:55.045Z,113.50
2018-05-27T04:29:26.760Z,130.60
2018-05-27T04:30:58.564Z,128.60
2018-05-27T04:32:30.374Z,135.50
2018-05-27T04:34:02.183Z,145.20
2018-05-27T04:35:33.994Z,137.00
2018-05-27T04:37:05.804Z,133.50
2018-05-27T04:38:37.612Z,111.80
2018-05-27T04:40:09.522Z,121.00
2018-05-27T04:41:41.231Z,126.80
2018-05-27T04:43:13.041Z,119.10
2018-05-27T04:44:44.851Z,118.80
2018-05-27T04:46:16.912Z,123.10
2018-05-27T04:47:48.470Z,115.40
2018-05-27T04:49:20.277Z,124.60
2018-05-27T04:50:52.095Z,125.70
2018-05-27T04:52:23.996Z,133.60
2018-05-27T04:53:55.708Z,135.70
2018-05-27T04:55:27.515Z,129.80
2018-05-27T04:56:59.324Z,131.70
2018-05-27T04:58:31.234Z,121.30
2018-05-27T05:00:02.943Z,133.30
2018-05-27T05:01:34.753Z,140.70
2018-05-27T05:03:06.565Z,126.40
2018-05-27T05:04:38.373Z,145.50
2018-05-27T05:06:10.181Z,123.30
2018-05-27T05:07:41.990Z,158.50
2018-05-27T05:09:13.800Z,105.10
2018-05-27T05:10:45.609Z,111.60
2018-05-27T05:12:17.420Z,115.70
2018-05-27T05:13:49.227Z,104.90
2018-05-27T05:15:21.039Z,111.10
2018-05-27T05:16:53.197Z,111.30
2018-05-27T05:18:24.662Z,120.00
2018-05-27T05:19:56.471Z,126.90
2018-05-27T05:21:28.275Z,118.80
2018-05-27T05:23:00.084Z,120.40
2018-05-27T05:24:31.894Z,128.50
2018-05-27T05:26:03.703Z,123.80
2018-05-27T05:27:35.550Z,133.70
2018-05-27T05:29:07.321Z,121.90
2018-05-27T05:30:39.130Z,122.80
2018-05-27T05:32:10.940Z,130.10
2018-05-27T05:33:42.748Z,121.40
2018-05-27T05:35:14.659Z,131.80
2018-05-27T05:36:46.372Z,140.20
2018-05-27T05:38:18.177Z,134.70
2018-05-27T05:39:49.984Z,139.80
2018-05-27T05:41:21.793Z,153.30
2018-05-27T05:42:53.602Z,141.30
2018-05-27T05:44:25.414Z,126.30
2018-05-27T05:45:57.220Z,141.20
2018-05-27T05:47:29.280Z,153.20
2018-05-27T05:49:00.842Z,136.60
2018-05-27T05:50:32.648Z,134.20
2018-05-27T05:52:04.458Z,149.80
2018-05-27T05:53:36.467Z,154.70
2018-05-27T05:55:08.078Z,141.90
2018-05-27T05:56:39.885Z,122.90
2018-05-27T05:58:11.694Z,162.00
2018-05-27T05:59:43.504Z,176.90
2018-05-27T06:01:15.365Z,130.70
2018-05-27T06:02:47.123Z,136.20
2018-05-27T06:04:18.931Z,149.80
2018-05-27T06:05:50.740Z,194.00
2018-05-27T06:07:22.552Z,139.10
2018-05-27T06:08:54.360Z,173.10
2018-05-27T06:10:26.169Z,164.30
2018-05-27T06:11:58.079Z,147.50
2018-05-27T06:13:29.844Z,172.10
2018-05-27T06:15:01.601Z,172.00
2018-05-27T06:16:33.407Z,173.10
2018-05-27T06:18:05.221Z,162.60
2018-05-27T06:19:37.095Z,147.00
2018-05-27T06:21:08.836Z,134.70
2018-05-27T06:22:40.645Z,130.30
2018-05-27T06:24:12.563Z,122.10
2018-05-27T06:25:44.272Z,130.80
2018-05-27T06:27:16.074Z,124.70
2018-05-27T06:28:47.884Z,117.70
2018-05-27T06:30:19.793Z,136.70
2018-05-27T06:31:51.504Z,147.30
2018-05-27T06:33:23.313Z,151.60
2018-05-27T06:34:55.128Z,109.00
2018-05-27T06:36:26.933Z,108.40
2018-05-27T06:37:58.742Z,137.10
2018-05-27T06:39:30.552Z,110.30
2018-05-27T06:41:02.361Z,130.80
2018-05-27T06:42:34.171Z,115.30
2018-05-27T06:44:05.980Z,115.40
2018-05-27T06:45:37.790Z,138.70
2018-05-27T06:47:09.601Z,118.30
2018-05-27T06:48:41.759Z,128.20
2018-05-27T06:50:13.219Z,118.90
2018-05-27T06:51:45.027Z,142.70
2018-05-27T06:53:16.837Z,153.90
2018-05-27T06:54:48.746Z,138.80
2018-05-27T06:56:20.456Z,112.80
2018-05-27T06:57:52.265Z,126.00
2018-05-27T06:59:24.073Z,129.40
2018-05-27T07:00:55.882Z,133.00
2018-05-27T07:02:27.691Z,143.40
2018-05-27T07:03:59.502Z,164.40
2018-05-27T07:05:31.310Z,154.40
2018-05-27T07:07:03.226Z,156.40
2018-05-27T07:08:34.929Z,144.10
2018-05-27T07:10:06.738Z,160.40
2018-05-27T07:11:38.569Z,149.00
2018-05-27T07:13:10.356Z,151.50
2018-05-27T07:14:42.166Z,170.80
2018-05-27T07:16:13.975Z,166.80
2018-05-27T07:17:45.784Z,160.40
2018-05-27T07:19:17.598Z,159.70
2018-05-27T07:20:49.402Z,160.00
2018-05-27T07:22:21.211Z,150.40
2018-05-27T07:23:53.020Z,146.90
2018-05-27T07:25:25.079Z,145.00
2018-05-27T07:26:56.643Z,141.40
2018-05-27T07:28:28.447Z,148.10
2018-05-27T07:30:00.256Z,143.60
2018-05-27T07:31:32.215Z,140.00
2018-05-27T07:33:03.873Z,137.40
2018-05-27T07:34:35.707Z,146.60
2018-05-27T07:36:07.492Z,118.00
2018-05-27T07:37:39.305Z,123.40
2018-05-27T07:39:11.109Z,124.30
2018-05-27T07:40:42.941Z,145.60
2018-05-27T07:42:14.728Z,143.80
2018-05-27T07:43:46.638Z,148.00
2018-05-27T07:45:18.346Z,137.50
2018-05-27T07:46:50.156Z,130.00
2018-05-27T07:48:21.968Z,138.90
2018-05-27T07:49:53.925Z,140.50
2018-05-27T07:51:25.582Z,133.00
2018-05-27T07:52:57.391Z,140.20
2018-05-27T07:54:29.204Z,123.10
2018-05-27T07:56:01.110Z,134.10
2018-05-27T07:57:32.818Z,150.10
2018-05-27T07:59:04.628Z,120.10
2018-05-27T08:00:36.439Z,121.70
2018-05-27T08:02:08.349Z,130.20
2018-05-27T08:03:40.055Z,130.10
2018-05-27T08:05:11.868Z,139.70
2018-05-27T08:06:43.673Z,122.50
2018-05-27T08:08:15.482Z,133.60
2018-05-27T08:09:47.294Z,130.90
2018-05-27T08:11:19.100Z,129.20
2018-05-27T08:12:50.910Z,143.40
2018-05-27T08:14:22.719Z,142.60
2018-05-27T08:15:54.527Z,129.10
2018-05-27T08:17:26.336Z,143.40
2018-05-27T08:18:58.146Z,163.70
2018-05-27T08:20:30.304Z,148.10
2018-05-27T08:22:01.767Z,156.50
2018-05-27T08:23:33.571Z,152.10
2018-05-27T08:25:05.394Z,122.50
2018-05-27T08:26:37.189Z,140.60
2018-05-27T08:28:09.000Z,132.20
2018-05-27T08:29:40.807Z,135.50
2018-05-27T08:31:12.619Z,130.20
2018-05-27T08:32:44.425Z,124.80
2018-05-27T08:34:16.236Z,122.70
2018-05-27T08:35:48.045Z,125.50
2018-05-27T08:37:19.854Z,130.00
2018-05-27T08:38:52.665Z,115.30
2018-05-27T08:40:23.472Z,120.40
2018-05-27T08:41:55.284Z,108.20
2018-05-27T08:43:27.172Z,118.80
2018-05-27T08:44:58.900Z,113.50
2018-05-27T08:46:30.708Z,118.00
2018-05-27T08:48:02.518Z,108.20
2018-05-27T08:49:34.327Z,112.10
2018-05-27T08:51:06.387Z,113.60
2018-05-27T08:52:37.946Z,101.70
2018-05-27T08:54:09.757Z,104.90
2018-05-27T08:55:41.564Z,94.90
2018-05-27T08:57:13.576Z,100.70
2018-05-27T08:58:45.183Z,97.40
2018-05-27T09:00:16.992Z,97.00
2018-05-27T09:01:48.803Z,86.90
2018-05-27T09:03:20.611Z,85.30
2018-05-27T09:04:52.421Z,76.90
2018-05-27T09:06:24.230Z,72.20
2018-05-27T09:07:56.040Z,79.20
2018-05-27T09:09:27.890Z,78.60
2018-05-27T09:10:59.657Z,72.80
2018-05-27T09:12:31.990Z,73.00
2018-05-27T09:14:03.278Z,65.30
2018-05-27T09:15:35.191Z,73.90
2018-05-27T09:17:06.919Z,75.80
2018-05-27T09:18:38.704Z,69.00
2018-05-27T09:20:10.515Z,72.60
2018-05-27T09:21:42.473Z,70.40
2018-05-27T09:23:14.132Z,70.20
2018-05-27T09:24:46.002Z,72.50
2018-05-27T09:26:17.754Z,69.60
2018-05-27T09:27:49.560Z,71.40
2018-05-27T09:29:21.370Z,66.40
2018-05-27T09:30:53.194Z,68.50
2018-05-27T09:32:24.989Z,71.10
2018-05-27T09:33:57.101Z,64.60
2018-05-27T09:35:28.609Z,67.90
2018-05-27T09:37:00.418Z,68.50
2018-05-27T09:38:32.227Z,65.90
2018-05-27T09:40:04.036Z,68.00
2018-05-27T09:41:35.847Z,64.70
2018-05-27T09:43:07.655Z,65.00
2018-05-27T09:44:39.466Z,59.20
2018-05-27T09:46:11.478Z,60.90
2018-05-27T09:47:43.084Z,50.60
2018-05-27T09:49:14.893Z,55.50
2018-05-27T09:50:46.703Z,52.90
2018-05-27T09:52:18.914Z,56.00
2018-05-27T09:53:50.322Z,56.80
2018-05-27T09:55:22.133Z,59.80
2018-05-27T09:56:53.943Z,51.50
2018-05-27T09:58:25.853Z,54.90
2018-05-27T09:59:57.579Z,54.60
2018-05-27T10:03:01.180Z,52.70
2018-05-27T10:04:32.989Z,53.20
2018-05-27T10:06:04.799Z,52.50
2018-05-27T10:07:36.607Z,52.60
2018-05-27T10:09:08.420Z,56.90
2018-05-27T10:10:40.328Z,52.70
2018-05-27T10:12:12.039Z,50.30
2018-05-27T10:13:43.847Z,49.30
2018-05-27T10:15:15.657Z,43.70
2018-05-27T10:16:47.466Z,47.90
2018-05-27T10:18:19.278Z,49.60
2018-05-27T10:19:51.391Z,43.50
2018-05-27T10:21:22.897Z,45.20
2018-05-27T10:22:54.957Z,44.20
2018-05-27T10:24:26.517Z,42.20
2018-05-27T10:25:58.384Z,39.50
2018-05-27T10:27:30.136Z,36.40
2018-05-27T10:30:33.857Z,39.70
2018-05-27T10:32:05.566Z,42.30
2018-05-27T10:33:37.376Z,42.50
2018-05-27T10:35:09.186Z,38.20
2018-05-27T10:36:41.146Z,36.90
2018-05-27T10:38:12.808Z,36.70
2018-05-27T10:39:44.616Z,38.90
2018-05-27T10:41:16.428Z,39.20
2018-05-27T10:42:48.236Z,40.60
2018-05-27T10:44:20.170Z,38.90
2018-05-27T10:45:51.857Z,35.90
2018-05-27T10:47:23.681Z,40.50
2018-05-27T10:48:55.780Z,37.80
2018-05-27T10:50:27.490Z,39.30
2018-05-27T10:53:30.910Z,35.40
2018-05-27T10:55:02.719Z,31.80
2018-05-27T10:56:34.530Z,37.00
2018-05-27T10:58:06.340Z,36.70
2018-05-27T10:59:38.151Z,33.20
2018-05-27T11:01:10.061Z,37.40
2018-05-27T11:02:41.773Z,32.30
2018-05-27T11:04:13.583Z,32.70
2018-05-27T11:05:45.694Z,31.70
2018-05-27T11:07:17.305Z,30.40
2018-05-27T11:08:49.017Z,31.60
2018-05-27T11:10:20.826Z,29.40
2018-05-27T11:11:52.636Z,30.40
2018-05-27T11:13:24.447Z,30.90
2018-05-27T11:14:56.259Z,26.60
2018-05-27T11:16:28.593Z,26.20
2018-05-27T11:17:59.880Z,27.20
2018-05-27T11:21:03.805Z,28.90
2018-05-27T11:22:35.822Z,25.90
2018-05-27T11:24:07.645Z,29.60
2018-05-27T11:25:40.152Z,27.40
2018-05-27T11:27:10.844Z,26.30
2018-05-27T11:28:42.556Z,26.00
2018-05-27T11:30:14.366Z,27.50
2018-05-27T11:31:46.179Z,29.50
2018-05-27T11:33:18.088Z,28.00
2018-05-27T11:36:21.613Z,27.70
2018-05-27T11:37:53.423Z,26.20
2018-05-27T11:39:25.386Z,27.60
2018-05-27T11:40:57.047Z,25.30
2018-05-27T11:42:28.869Z,28.30
2018-05-27T11:44:00.671Z,26.80
2018-05-27T11:45:32.581Z,24.80
2018-05-27T11:47:04.295Z,24.10
2018-05-27T11:48:36.127Z,26.60
2018-05-27T11:50:07.918Z,28.40
2018-05-27T11:51:39.932Z,25.90
2018-05-27T11:53:11.541Z,27.90
2018-05-27T11:54:43.356Z,25.60
2018-05-27T11:56:15.293Z,26.80
2018-05-27T11:57:46.977Z,29.90
2018-05-27T11:59:18.992Z,28.20
2018-05-27T12:00:50.601Z,29.00
2018-05-27T12:02:22.415Z,26.80
2018-05-27T12:03:54.850Z,25.30
2018-05-27T12:05:26.242Z,27.00
2018-05-27T12:06:57.852Z,28.70
2018-05-27T12:08:29.669Z,26.40
2018-05-27T12:10:01.784Z,27.50
2018-05-27T12:11:33.293Z,25.90
2018-05-27T12:13:05.407Z,24.90
2018-05-27T12:14:36.921Z,24.40
2018-05-27T12:16:08.939Z,23.40
2018-05-27T12:19:12.360Z,26.30
2018-05-27T12:20:44.173Z,22.60
2018-05-27T12:22:16.090Z,24.70
2018-05-27T12:25:20.123Z,23.60
2018-05-27T12:26:51.954Z,22.70
2018-05-27T12:28:23.448Z,22.00
2018-05-27T12:29:55.367Z,21.60
2018-05-27T12:31:26.872Z,23.20
2018-05-27T12:32:58.688Z,21.50
2018-05-27T12:34:30.599Z,20.10
2018-05-27T12:36:02.517Z,21.60
2018-05-27T12:37:34.128Z,23.50
2018-05-27T12:40:38.057Z,20.80
2018-05-27T12:42:09.569Z,23.10
2018-05-27T12:43:41.385Z,23.10
2018-05-27T12:45:13.199Z,24.50
2018-05-27T12:46:45.942Z,22.80
2018-05-27T12:48:16.825Z,24.10
2018-05-27T12:49:48.641Z,23.40
2018-05-27T12:51:20.456Z,24.80
2018-05-27T12:52:52.268Z,22.90
2018-05-27T12:54:24.285Z,20.90
2018-05-27T12:55:56.420Z,21.90
2018-05-27T12:57:27.713Z,22.70
2018-05-27T12:58:59.879Z,22.60
2018-05-27T13:00:31.868Z,23.80
2018-05-27T13:02:03.159Z,19.70
2018-05-27T13:03:34.974Z,21.90
2018-05-27T13:05:06.893Z,23.90
2018-05-27T13:06:38.666Z,21.10
2018-05-27T13:08:10.425Z,20.00
2018-05-27T13:14:17.791Z,21.70
2018-05-27T13:15:50.439Z,19.70
2018-05-27T13:17:21.327Z,19.50
2018-05-27T13:18:53.145Z,22.10
2018-05-27T13:20:24.966Z,21.10
2018-05-27T13:21:56.784Z,20.60
2018-05-27T13:23:28.603Z,20.50
2018-05-27T13:25:00.424Z,19.70
2018-05-27T13:28:04.060Z,18.90
2018-05-27T13:29:35.881Z,21.00
2018-05-27T13:31:07.903Z,20.40
2018-05-27T13:34:11.746Z,21.80
2018-05-27T13:35:43.162Z,20.00
2018-05-27T13:37:14.983Z,24.60
2018-05-27T13:38:46.804Z,20.30
2018-05-27T13:40:18.724Z,20.70
2018-05-27T13:41:50.749Z,19.90
2018-05-27T13:43:22.267Z,20.70
2018-05-27T13:44:54.396Z,20.00
2018-05-27T13:46:25.906Z,20.00
2018-05-27T13:49:29.550Z,21.70
2018-05-27T13:51:01.373Z,21.20
2018-05-27T13:52:33.494Z,20.10
2018-05-27T13:54:05.015Z,19.80
2018-05-27T13:55:36.831Z,22.30
2018-05-27T13:57:08.651Z,21.30
2018-05-27T14:00:12.333Z,21.80
2018-05-27T14:01:44.112Z,22.90
2018-05-27T14:03:17.061Z,21.00
2018-05-27T14:04:47.810Z,19.80
2018-05-27T14:06:19.574Z,21.70
2018-05-27T14:07:51.395Z,20.60
2018-05-27T14:09:23.418Z,20.60
2018-05-27T14:13:58.876Z,19.40
2018-05-27T14:15:30.497Z,17.70
2018-05-27T14:17:02.319Z,18.30
2018-05-27T14:20:05.960Z,18.60
2018-05-27T14:23:09.600Z,18.20
2018-05-27T14:24:41.943Z,18.20
2018-05-27T14:26:13.244Z,17.50
2018-05-27T14:27:45.062Z,18.10
2018-05-27T14:29:16.884Z,18.50
2018-05-27T14:30:48.705Z,17.50
2018-05-27T14:32:20.625Z,17.20
2018-05-27T14:33:52.349Z,17.70
2018-05-27T14:35:24.168Z,17.90
2018-05-27T14:36:56.292Z,17.00
2018-05-27T14:38:27.811Z,17.80
2018-05-27T14:41:31.758Z,18.10
2018-05-27T14:43:03.278Z,18.10
2018-05-27T14:44:35.097Z,18.30
2018-05-27T14:46:07.646Z,18.10
2018-05-27T14:47:38.743Z,17.60
2018-05-27T14:49:10.564Z,17.90
2018-05-27T14:50:42.487Z,17.30
2018-05-27T14:52:14.210Z,16.90
2018-05-27T14:55:17.853Z,18.60
2018-05-27T14:56:49.879Z,17.80
2018-05-27T14:58:21.499Z,16.60
2018-05-27T15:01:25.143Z,17.40
2018-05-27T15:02:56.967Z,16.00
2018-05-27T15:04:28.789Z,14.40
2018-05-27T15:06:00.612Z,16.30
2018-05-27T15:07:32.435Z,16.30
2018-05-27T15:10:37.434Z,15.60
2018-05-27T15:12:07.907Z,16.90
2018-05-27T15:13:39.927Z,16.40
2018-05-27T15:15:11.750Z,17.10
2018-05-27T15:16:44.043Z,15.20
2018-05-27T15:18:15.193Z,16.00
2018-05-27T15:21:18.839Z,17.20
2018-05-27T15:22:50.662Z,16.90
2018-05-27T15:24:22.484Z,15.90
2018-05-27T15:25:54.308Z,14.50
2018-05-27T15:28:58.055Z,16.30
2018-05-27T15:30:29.794Z,16.80
2018-05-27T15:33:33.950Z,15.90
2018-05-27T15:35:05.455Z,15.80
2018-05-27T15:36:37.595Z,16.20
2018-05-27T15:38:08.896Z,14.20
2018-05-27T15:41:12.542Z,16.80
2018-05-27T15:42:44.365Z,16.30
2018-05-27T15:44:16.188Z,16.90
2018-05-27T15:45:48.013Z,16.20
2018-05-27T15:47:20.313Z,16.20
2018-05-27T15:48:51.860Z,16.00
2018-05-27T15:50:23.479Z,17.10
2018-05-27T15:51:55.509Z,16.30
2018-05-27T15:53:27.481Z,16.50
2018-05-27T15:54:58.950Z,16.60
2018-05-27T15:56:30.774Z,17.20
2018-05-27T15:58:02.597Z,16.10
2018-05-27T15:59:34.672Z,15.60
2018-05-27T16:01:06.245Z,15.70
2018-05-27T16:04:09.899Z,17.10
2018-05-27T16:07:13.638Z,16.60
2018-05-27T16:10:17.187Z,19.60
2018-05-27T16:11:49.312Z,18.40
2018-05-27T16:13:20.830Z,18.70
2018-05-27T16:14:52.655Z,17.10
2018-05-27T16:16:24.480Z,18.00
2018-05-27T16:17:56.305Z,17.60
2018-05-27T16:19:28.127Z,19.00
2018-05-27T16:22:31.776Z,16.70
2018-05-27T16:24:03.802Z,15.00
2018-05-27T16:25:35.726Z,14.80
2018-05-27T16:27:07.753Z,17.10
2018-05-27T16:28:39.685Z,18.10
2018-05-27T16:30:10.896Z,16.00
2018-05-27T16:31:43.276Z,14.80
2018-05-27T16:33:14.546Z,13.70
2018-05-27T16:34:46.371Z,13.00
2018-05-27T16:36:18.195Z,13.30
2018-05-27T16:37:50.019Z,13.70
2018-05-27T16:42:25.492Z,10.90
2018-05-27T16:47:01.368Z,9.90
2018-05-27T16:48:32.784Z,11.30
2018-05-27T16:50:04.608Z,11.50
2018-05-27T16:51:36.433Z,10.80
2018-05-27T16:54:40.432Z,11.40
2018-05-27T16:56:11.904Z,12.00
2018-05-27T16:59:15.552Z,11.80
2018-05-27T17:02:20.075Z,11.30
2018-05-27T17:03:51.636Z,11.70
2018-05-27T17:05:23.456Z,11.40
2018-05-27T17:06:54.674Z,11.50
2018-05-27T17:08:26.497Z,10.90
2018-05-27T17:09:58.321Z,10.90
2018-05-27T17:11:30.149Z,9.50
2018-05-27T17:13:02.275Z,9.10
2018-05-27T17:14:34.102Z,9.90
2018-05-27T17:16:05.620Z,9.40
2018-05-27T17:17:37.446Z,8.80
2018-05-27T17:19:09.470Z,9.70
2018-05-27T17:20:41.193Z,9.40
2018-05-27T17:22:12.916Z,9.00
2018-05-27T17:23:44.740Z,8.80
2018-05-27T17:25:16.565Z,8.20
2018-05-27T17:26:48.489Z,8.70
2018-05-27T17:28:20.213Z,9.00
2018-05-27T17:29:52.035Z,7.90
2018-05-27T17:31:24.163Z,9.40
2018-05-27T17:32:55.933Z,11.30
2018-05-27T17:34:27.810Z,11.60
2018-05-27T17:35:59.890Z,11.60
2018-05-27T17:37:31.153Z,11.30
2018-05-27T17:39:03.379Z,11.20
2018-05-27T17:40:34.838Z,12.50
2018-05-27T17:42:06.622Z,13.80
2018-05-27T17:43:38.446Z,15.60
2018-05-27T17:45:10.267Z,18.10
2018-05-27T17:46:42.091Z,17.90
2018-05-27T17:48:13.914Z,20.90
2018-05-27T17:49:45.942Z,21.20
2018-05-27T17:51:17.868Z,22.70
2018-05-27T17:54:21.219Z,23.00
2018-05-27T17:55:53.023Z,23.70
2018-05-27T17:57:25.448Z,24.60
2018-05-27T17:58:56.663Z,27.40
2018-05-27T18:00:28.483Z,27.70
2018-05-27T18:02:00.303Z,27.90
2018-05-27T18:03:32.373Z,29.90
2018-05-27T18:05:03.945Z,31.30
2018-05-27T18:06:35.965Z,31.30
2018-05-27T18:08:07.584Z,31.60
2018-05-27T18:09:39.403Z,30.30
2018-05-27T18:11:11.224Z,30.70
2018-05-27T18:12:43.043Z,30.20
2018-05-27T18:14:14.863Z,30.60
2018-05-27T18:15:46.785Z,28.10
2018-05-27T18:17:18.506Z,28.90
2018-05-27T18:18:50.325Z,27.00
2018-05-27T18:20:22.189Z,28.60
2018-05-27T18:21:53.969Z,27.50
2018-05-27T18:24:57.609Z,27.50
2018-05-27T18:26:29.429Z,27.10
2018-05-27T18:28:01.353Z,25.20
2018-05-27T18:29:33.076Z,25.20
2018-05-27T18:32:36.712Z,23.80
2018-05-27T18:34:08.634Z,22.20
2018-05-27T18:35:40.354Z,20.20
2018-05-27T18:37:12.175Z,21.30
2018-05-27T18:38:44.199Z,21.40
2018-05-27T18:41:47.637Z,21.00
2018-05-27T18:43:19.978Z,20.60
2018-05-27T18:44:51.275Z,22.20
2018-05-27T18:46:23.095Z,21.80
2018-05-27T18:47:54.916Z,21.70
2018-05-27T18:49:26.736Z,21.40
2018-05-27T18:50:58.556Z,20.20
2018-05-27T18:52:30.377Z,21.00
2018-05-27T18:54:02.296Z,19.50
2018-05-27T18:55:34.019Z,21.00
2018-05-27T18:57:05.836Z,20.40
2018-05-27T18:58:37.858Z,19.50
2018-05-27T19:00:09.579Z,18.20
2018-05-27T19:01:41.296Z,17.90
2018-05-27T19:03:13.114Z,18.70
2018-05-27T19:04:44.934Z,17.90
2018-05-27T19:06:16.754Z,17.90
2018-05-27T19:07:48.571Z,17.30
2018-05-27T19:09:20.391Z,17.10
2018-05-27T19:10:52.208Z,18.60
2018-05-27T19:12:24.129Z,18.70
2018-05-27T19:13:55.846Z,17.80
2018-05-27T19:15:27.666Z,18.20
2018-05-27T19:16:59.788Z,18.90
2018-05-27T19:18:31.306Z,20.60
2018-05-27T19:20:03.152Z,21.40
2018-05-27T19:21:34.942Z,22.60
2018-05-27T19:23:06.758Z,22.70
2018-05-27T19:24:38.578Z,21.70
2018-05-27T19:26:10.435Z,21.80
2018-05-27T19:27:42.215Z,22.10
2018-05-27T19:29:14.032Z,22.90
2018-05-27T19:30:46.055Z,25.20
2018-05-27T19:32:17.872Z,25.90
2018-05-27T19:33:50.095Z,26.10
2018-05-27T19:35:21.611Z,24.70
2018-05-27T19:36:53.124Z,25.00
2018-05-27T19:38:24.943Z,25.80
2018-05-27T19:39:56.758Z,24.00
2018-05-27T19:41:28.578Z,25.50
2018-05-27T19:43:00.394Z,22.10
2018-05-27T19:44:32.211Z,20.90
2018-05-27T19:46:04.027Z,20.20
2018-05-27T19:47:35.847Z,20.60
2018-05-27T19:49:07.785Z,19.90
2018-05-27T19:50:39.781Z,21.00
2018-05-27T19:52:11.294Z,21.20
2018-05-27T19:53:43.109Z,21.50
2018-05-27T19:55:14.927Z,22.90
2018-05-27T19:56:46.740Z,22.20
2018-05-27T19:58:18.558Z,22.50
2018-05-27T19:59:50.373Z,23.90
2018-05-27T20:01:22.288Z,25.20
2018-05-27T20:02:54.003Z,22.60
2018-05-27T20:04:25.819Z,28.40
2018-05-27T20:05:57.632Z,24.90
2018-05-27T20:07:29.547Z,26.30
2018-05-27T20:09:01.263Z,27.60
2018-05-27T20:10:33.080Z,27.50
2018-05-27T20:12:04.892Z,29.30
2018-05-27T20:13:36.705Z,28.40
2018-05-27T20:15:08.532Z,28.90
2018-05-27T20:16:40.333Z,31.00
2018-05-27T20:18:12.147Z,32.20
2018-05-27T20:19:43.961Z,32.40
2018-05-27T20:21:15.776Z,31.90
2018-05-27T20:22:47.591Z,32.10
2018-05-27T20:24:19.402Z,36.40
2018-05-27T20:25:51.320Z,35.30
2018-05-27T20:27:23.027Z,39.50
2018-05-27T20:28:54.841Z,36.00
2018-05-27T20:30:26.657Z,34.30
2018-05-27T20:31:58.569Z,38.90
2018-05-27T20:33:30.280Z,41.30
2018-05-27T20:35:02.096Z,41.40